createdAt,value
2018-05-29T00:02:05.213Z,67.72
2018-05-29T00:04:36.677Z,68.12
2018-05-29T00:07:05.910Z,68.21
2018-05-29T00:09:38.839Z,68.13
2018-05-29T00:12:11.824Z,68.62
2018-05-29T00:14:47.095Z,69.23
2018-05-29T00:17:16.871Z,68.84
2018-05-29T00:19:49.665Z,69.21
2018-05-29T00:22:22.582Z,69.12
2018-05-29T00:24:57.147Z,69.41
2018-05-29T00:27:27.652Z,69.76
2018-05-29T00:29:59.022Z,69.67
2018-05-29T00:32:29.788Z,69.64
2018-05-29T00:35:01.387Z,68.86
2018-05-29T00:37:31.569Z,69.49
2018-05-29T00:40:03.111Z,69.92
2018-05-29T00:42:38.777Z,69.79
2018-05-29T00:45:09.482Z,70.42
2018-05-29T00:47:39.399Z,70.43
2018-05-29T00:50:11.903Z,70.16
2018-05-29T00:52:43.446Z,70.54
2018-05-29T00:55:40.922Z,70.34
2018-05-29T00:58:12.344Z,70.75
2018-05-29T01:00:43.846Z,71.16
2018-05-29T01:03:15.733Z,71.48
2018-05-29T01:05:46.648Z,71.49
2018-05-29T01:08:20.048Z,71.64
2018-05-29T01:10:55.382Z,71.50
2018-05-29T01:13:29.748Z,71.86
2018-05-29T01:16:02.725Z,72.01
2018-05-29T01:18:35.212Z,73.03
2018-05-29T01:21:06.538Z,72.79
2018-05-29T01:23:36.556Z,72.93
2018-05-29T01:26:07.855Z,73.06
2018-05-29T01:28:39.280Z,73.36
2018-05-29T01:31:11.863Z,73.82
2018-05-29T01:33:44.673Z,73.87
2018-05-29T01:36:17.705Z,73.85
2018-05-29T01:38:50.593Z,73.70
2018-05-29T01:41:23.662Z,73.72
2018-05-29T01:43:53.725Z,73.79
2018-05-29T01:46:27.363Z,74.34
2018-05-29T01:49:01.924Z,74.26
2018-05-29T01:51:33.741Z,74.00
2018-05-29T01:54:05.156Z,74.20
2018-05-29T01:56:34.585Z,73.84
2018-05-29T01:59:06.677Z,74.05
2018-05-29T02:01:39.728Z,74.34
2018-05-29T02:04:09.634Z,74.53
2018-05-29T02:06:40.145Z,74.75
2018-05-29T02:09:11.727Z,74.81
2018-05-29T02:11:44.582Z,74.78
2018-05-29T02:14:17.508Z,74.75
2018-05-29T02:16:50.575Z,75.11
2018-05-29T02:19:20.602Z,75.51
2018-05-29T02:21:52.072Z,75.41
2018-05-29T02:24:25.340Z,75.45
2018-05-29T02:26:56.806Z,75.65
2018-05-29T02:29:29.762Z,76.24
2018-05-29T02:32:03.152Z,76.54
2018-05-29T02:34:34.608Z,76.69
2018-05-29T02:37:06.113Z,76.95
2018-05-29T02:39:39.357Z,77.01
2018-05-29T02:42:12.505Z,77.11
2018-05-29T02:44:43.824Z,77.28
2018-05-29T02:47:15.813Z,77.60
2018-05-29T02:49:48.629Z,77.65
2018-05-29T02:52:20.734Z,77.66
2018-05-29T02:54:50.639Z,77.66
2018-05-29T02:57:19.483Z,77.78
2018-05-29T02:59:49.223Z,77.78
2018-05-29T03:02:19.232Z,77.98
2018-05-29T03:04:52.168Z,78.05
2018-05-29T03:07:25.015Z,78.12
2018-05-29T03:09:57.967Z,78.16
2018-05-29T03:12:29.352Z,78.25
2018-05-29T03:15:01.330Z,78.05
2018-05-29T03:17:33.879Z,78.20
2018-05-29T03:20:05.256Z,78.09
2018-05-29T03:22:35.976Z,78.25
2018-05-29T03:25:06.304Z,78.45
2018-05-29T03:27:35.359Z,78.50
2018-05-29T03:30:06.029Z,78.32
2018-05-29T03:32:39.004Z,78.41
2018-05-29T03:35:09.901Z,78.37
2018-05-29T03:37:44.366Z,77.98
2018-05-29T03:40:15.890Z,77.97
2018-05-29T03:42:50.134Z,78.26
2018-05-29T03:45:21.738Z,78.28
2018-05-29T03:47:54.603Z,78.36
2018-05-29T03:50:27.560Z,78.20
2018-05-29T03:53:01.870Z,78.12
2018-05-29T03:55:33.411Z,78.24
2018-05-29T03:58:04.773Z,77.52
2018-05-29T04:00:36.196Z,76.90
2018-05-29T04:03:07.965Z,76.50
2018-05-29T04:05:43.499Z,75.92
2018-05-29T04:08:14.755Z,75.17
2018-05-29T04:10:46.066Z,74.54
2018-05-29T04:13:17.475Z,74.45
2018-05-29T04:15:49.366Z,73.13
2018-05-29T04:18:20.653Z,71.95
2018-05-29T04:20:54.943Z,71.67
2018-05-29T04:23:26.353Z,71.22
2018-05-29T04:25:57.876Z,70.50
2018-05-29T04:28:29.600Z,70.60
2018-05-29T04:30:59.577Z,70.05
2018-05-29T04:33:32.494Z,70.03
2018-05-29T04:36:05.021Z,68.67
2018-05-29T04:38:36.419Z,68.84
2018-05-29T04:41:07.308Z,68.64
2018-05-29T04:43:38.109Z,68.12
2018-05-29T04:46:12.361Z,68.20
2018-05-29T04:48:48.338Z,68.12
2018-05-29T04:51:20.250Z,67.34
2018-05-29T04:53:51.601Z,66.61
2018-05-29T04:56:22.973Z,65.89
2018-05-29T04:58:55.154Z,65.05
2018-05-29T05:01:27.942Z,64.70
2018-05-29T05:04:01.301Z,64.01
2018-05-29T05:06:34.129Z,64.86
2018-05-29T05:09:04.213Z,62.91
2018-05-29T05:11:38.232Z,62.89
2018-05-29T05:14:11.398Z,60.75
2018-05-29T05:16:45.146Z,61.28
2018-05-29T05:19:17.500Z,62.39
2018-05-29T05:21:49.501Z,61.42
2018-05-29T05:24:20.854Z,60.49
2018-05-29T05:26:52.810Z,61.36
2018-05-29T05:29:24.353Z,60.72
2018-05-29T05:31:56.767Z,60.41
2018-05-29T05:34:28.280Z,60.45
2018-05-29T05:37:01.900Z,58.85
2018-05-29T05:39:33.471Z,58.24
2018-05-29T05:42:08.030Z,58.61
2018-05-29T05:44:40.888Z,56.61
2018-05-29T05:47:12.405Z,56.34
2018-05-29T05:49:45.336Z,53.85
2018-05-29T05:52:16.004Z,54.21
2018-05-29T05:54:50.324Z,55.84
2018-05-29T05:57:20.237Z,56.57
2018-05-29T05:59:51.615Z,57.21
2018-05-29T06:02:24.914Z,56.49
2018-05-29T06:04:57.966Z,55.64
2018-05-29T06:07:30.305Z,55.81
2018-05-29T06:10:02.129Z,56.34
2018-05-29T06:12:34.295Z,54.50
2018-05-29T06:15:07.030Z,55.01
2018-05-29T06:17:38.321Z,54.29
2018-05-29T06:20:09.786Z,52.97
2018-05-29T06:22:41.987Z,52.20
2018-05-29T06:25:14.811Z,54.85
2018-05-29T06:27:49.205Z,52.69
2018-05-29T06:30:22.055Z,52.50
2018-05-29T06:32:52.933Z,53.00
2018-05-29T06:35:27.248Z,53.36
2018-05-29T06:38:00.672Z,53.20
2018-05-29T06:40:32.632Z,52.32
2018-05-29T06:43:04.334Z,52.12
2018-05-29T06:45:35.706Z,51.00
2018-05-29T06:48:07.409Z,50.10
2018-05-29T06:50:40.198Z,49.80
2018-05-29T06:53:11.593Z,48.64
2018-05-29T06:55:44.472Z,50.99
2018-05-29T06:58:17.353Z,50.11
2018-05-29T07:00:50.201Z,49.23
2018-05-29T07:03:24.657Z,49.13
2018-05-29T07:05:57.468Z,48.99
2018-05-29T07:08:31.893Z,50.00
2018-05-29T07:11:04.709Z,46.29
2018-05-29T07:13:36.055Z,45.24
2018-05-29T07:16:10.375Z,46.78
2018-05-29T07:18:41.731Z,45.16
2018-05-29T07:21:14.078Z,46.67
2018-05-29T07:23:46.931Z,43.70
2018-05-29T07:26:19.683Z,41.62
2018-05-29T07:28:51.746Z,42.14
2018-05-29T07:31:21.912Z,41.70
2018-05-29T07:33:54.702Z,39.73
2018-05-29T07:36:26.018Z,41.99
2018-05-29T07:38:55.811Z,42.67
2018-05-29T07:41:28.288Z,43.39
2018-05-29T07:44:01.557Z,44.68
2018-05-29T07:46:35.746Z,44.55
2018-05-29T07:49:09.307Z,42.43
2018-05-29T07:51:40.738Z,43.15
2018-05-29T07:54:12.036Z,42.00
2018-05-29T07:56:44.891Z,42.33
2018-05-29T07:59:16.318Z,41.16
2018-05-29T08:01:47.681Z,40.81
2018-05-29T08:04:17.684Z,41.12
2018-05-29T08:06:51.890Z,40.75
2018-05-29T08:09:23.689Z,39.01
2018-05-29T08:11:58.089Z,40.11
2018-05-29T08:14:33.613Z,41.78
2018-05-29T08:17:06.476Z,39.68
2018-05-29T08:19:38.334Z,43.50
2018-05-29T08:22:12.467Z,40.99
2018-05-29T08:24:46.756Z,43.29
2018-05-29T08:27:20.284Z,41.02
2018-05-29T08:29:51.740Z,40.71
2018-05-29T08:32:23.047Z,42.22
2018-05-29T08:34:55.821Z,39.84
2018-05-29T08:37:29.304Z,41.29
2018-05-29T08:40:02.430Z,42.54
2018-05-29T08:42:32.351Z,44.18
2018-05-29T08:45:06.666Z,42.89
2018-05-29T08:47:39.609Z,45.45
2018-05-29T08:50:12.526Z,40.62
2018-05-29T08:52:45.499Z,43.44
2018-05-29T08:55:15.896Z,43.47
2018-05-29T08:57:45.755Z,43.12
2018-05-29T09:00:18.511Z,43.98
2018-05-29T09:02:51.708Z,41.17
2018-05-29T09:05:23.051Z,42.06
2018-05-29T09:07:55.790Z,41.04
2018-05-29T09:10:28.530Z,43.21
2018-05-29T09:13:02.655Z,43.37
2018-05-29T09:15:33.460Z,40.97
2018-05-29T09:18:06.407Z,39.93
2018-05-29T09:20:36.976Z,38.25
2018-05-29T09:23:09.752Z,37.34
2018-05-29T09:25:40.618Z,38.67
2018-05-29T09:28:11.977Z,39.50
2018-05-29T09:30:45.396Z,38.11
2018-05-29T09:33:18.848Z,36.99
2018-05-29T09:35:52.722Z,38.52
2018-05-29T09:38:25.511Z,38.39
2018-05-29T09:40:56.945Z,39.12
2018-05-29T09:43:28.281Z,37.10
2018-05-29T09:46:01.095Z,38.93
2018-05-29T09:48:35.224Z,38.60
2018-05-29T09:51:07.305Z,34.84
2018-05-29T09:53:37.845Z,37.01
2018-05-29T09:56:10.659Z,36.22
2018-05-29T09:58:42.074Z,38.90
2018-05-29T10:01:15.033Z,35.10
2018-05-29T10:03:46.200Z,36.32
2018-05-29T10:06:19.016Z,35.92
2018-05-29T10:08:50.383Z,40.43
2018-05-29T10:11:20.315Z,37.66
2018-05-29T10:13:53.024Z,37.32
2018-05-29T10:16:25.129Z,33.37
2018-05-29T10:18:59.402Z,33.94
2018-05-29T10:21:30.991Z,32.02
2018-05-29T10:24:03.740Z,33.63
2018-05-29T10:26:35.855Z,34.19
2018-05-29T10:29:08.631Z,34.25
2018-05-29T10:31:38.620Z,35.01
2018-05-29T10:34:12.892Z,35.72
2018-05-29T10:36:45.768Z,35.19
2018-05-29T10:39:18.972Z,37.93
2018-05-29T10:41:51.896Z,37.63
2018-05-29T10:44:23.265Z,36.40
2018-05-29T10:46:55.271Z,34.68
2018-05-29T10:49:28.156Z,35.46
2018-05-29T10:52:02.372Z,33.54
2018-05-29T10:54:36.963Z,33.48
2018-05-29T10:57:09.846Z,34.71
2018-05-29T10:59:43.395Z,35.75
2018-05-29T11:02:14.813Z,33.79
2018-05-29T11:04:46.855Z,34.85
2018-05-29T11:07:18.319Z,35.14
2018-05-29T11:09:51.895Z,34.29
2018-05-29T11:12:23.203Z,31.88
2018-05-29T11:14:56.081Z,32.04
2018-05-29T11:17:27.699Z,34.90
2018-05-29T11:19:57.532Z,32.57
2018-05-29T11:22:27.341Z,35.25
2018-05-29T11:25:00.306Z,37.14
2018-05-29T11:27:33.083Z,35.43
2018-05-29T11:30:04.376Z,32.82
2018-05-29T11:32:38.637Z,32.70
2018-05-29T11:35:09.973Z,31.84
2018-05-29T11:37:42.989Z,33.52
2018-05-29T11:40:16.677Z,35.90
2018-05-29T11:42:49.373Z,37.92
2018-05-29T11:45:19.244Z,39.13
2018-05-29T11:47:53.660Z,36.20
2018-05-29T11:50:25.128Z,35.43
2018-05-29T11:52:56.438Z,36.90
2018-05-29T11:55:28.277Z,35.52
2018-05-29T11:58:02.654Z,34.82
2018-05-29T12:00:35.486Z,35.97
2018-05-29T12:03:08.805Z,35.14
2018-05-29T12:05:44.115Z,35.87
2018-05-29T12:08:16.964Z,34.89
2018-05-29T12:10:48.631Z,34.59
2018-05-29T12:13:19.033Z,35.27
2018-05-29T12:15:53.269Z,37.59
2018-05-29T12:18:26.527Z,38.98
2018-05-29T12:20:59.204Z,34.80
2018-05-29T12:23:29.071Z,33.57
2018-05-29T12:26:00.204Z,36.66
2018-05-29T12:28:33.873Z,35.12
2018-05-29T12:31:07.009Z,33.85
2018-05-29T12:33:37.691Z,34.18
2018-05-29T12:36:10.555Z,34.27
2018-05-29T12:38:42.586Z,33.09
2018-05-29T12:41:14.460Z,34.88
2018-05-29T12:43:48.730Z,38.41
2018-05-29T12:46:20.590Z,34.58
2018-05-29T12:48:50.966Z,37.66
2018-05-29T12:51:24.192Z,33.77
2018-05-29T12:53:55.485Z,37.29
2018-05-29T12:56:26.793Z,32.94
2018-05-29T12:58:59.635Z,31.03
2018-05-29T13:01:29.454Z,34.75
2018-05-29T13:04:00.795Z,36.66
2018-05-29T13:06:32.877Z,34.49
2018-05-29T13:09:04.317Z,34.27
2018-05-29T13:11:34.725Z,32.18
2018-05-29T13:14:06.944Z,35.74
2018-05-29T13:16:39.669Z,31.95
2018-05-29T13:19:09.490Z,36.58
2018-05-29T13:21:40.927Z,35.97
2018-05-29T13:24:16.165Z,35.48
2018-05-29T13:26:49.022Z,32.59
2018-05-29T13:29:18.867Z,34.13
2018-05-29T13:31:50.222Z,34.40
2018-05-29T13:34:23.617Z,36.07
2018-05-29T13:36:55.423Z,34.80
2018-05-29T13:39:29.115Z,32.49
2018-05-29T13:42:09.755Z,31.74
2018-05-29T13:44:42.462Z,33.59
2018-05-29T13:47:16.002Z,32.17
2018-05-29T13:49:50.272Z,34.55
2018-05-29T13:52:23.060Z,34.25
2018-05-29T13:54:56.622Z,32.57
2018-05-29T13:57:30.903Z,34.33
2018-05-29T14:00:05.476Z,36.59
2018-05-29T14:02:36.814Z,41.54
2018-05-29T14:05:08.234Z,38.70
2018-05-29T14:07:39.897Z,40.10
2018-05-29T14:10:12.736Z,41.73
2018-05-29T14:12:44.045Z,42.15
2018-05-29T14:15:17.393Z,39.87
2018-05-29T14:17:50.321Z,40.28
2018-05-29T14:20:23.250Z,41.99
2018-05-29T14:22:57.631Z,42.26
2018-05-29T14:25:31.065Z,42.72
2018-05-29T14:28:03.871Z,42.32
2018-05-29T14:30:36.502Z,43.38
2018-05-29T14:33:10.852Z,43.59
2018-05-29T14:35:45.279Z,44.34
2018-05-29T14:38:18.707Z,45.53
2018-05-29T14:40:51.622Z,46.27
2018-05-29T14:43:25.965Z,44.88
2018-05-29T14:45:58.781Z,46.61
2018-05-29T14:48:31.142Z,45.96
2018-05-29T14:51:04.218Z,45.53
2018-05-29T14:53:37.840Z,42.95
2018-05-29T14:56:07.710Z,46.39
2018-05-29T14:58:39.059Z,44.06
2018-05-29T15:01:08.968Z,43.88
2018-05-29T15:03:43.263Z,44.01
2018-05-29T15:06:15.032Z,45.05
2018-05-29T15:08:49.343Z,44.43
2018-05-29T15:11:19.220Z,46.38
2018-05-29T15:13:52.048Z,44.68
2018-05-29T15:16:26.198Z,45.13
2018-05-29T15:18:56.165Z,43.24
2018-05-29T15:21:30.520Z,46.84
2018-05-29T15:24:24.927Z,49.69
2018-05-29T15:26:57.976Z,60.12
2018-05-29T15:29:32.095Z,65.49
2018-05-29T15:32:05.182Z,65.74
2018-05-29T15:34:38.100Z,67.63
2018-05-29T15:37:12.868Z,71.71
2018-05-29T15:39:45.851Z,69.20
2018-05-29T15:42:19.238Z,67.28
2018-05-29T15:45:04.351Z,68.18
2018-05-29T15:47:37.212Z,66.18
2018-05-29T15:50:07.337Z,65.05
2018-05-29T15:52:40.188Z,63.46
2018-05-29T15:55:12.991Z,63.54
2018-05-29T15:57:44.375Z,65.72
2018-05-29T16:00:17.788Z,62.61
2018-05-29T16:02:50.642Z,61.06
2018-05-29T16:05:24.976Z,63.88
2018-05-29T16:07:55.596Z,60.21
2018-05-29T16:10:27.618Z,62.22
2018-05-29T16:12:59.634Z,59.51
2018-05-29T16:15:33.287Z,47.83
2018-05-29T16:18:07.624Z,48.87
2018-05-29T16:20:41.863Z,48.04
2018-05-29T16:23:15.166Z,48.01
2018-05-29T16:25:46.698Z,51.82
2018-05-29T16:28:21.030Z,56.39
2018-05-29T16:30:52.383Z,58.46
2018-05-29T16:33:22.703Z,58.11
2018-05-29T16:35:54.929Z,57.16
2018-05-29T16:38:29.278Z,57.12
2018-05-29T16:41:01.356Z,57.63
2018-05-29T16:43:31.804Z,57.62
2018-05-29T16:46:04.673Z,57.70
2018-05-29T16:48:38.218Z,55.71
2018-05-29T16:51:09.711Z,56.74
2018-05-29T16:53:41.771Z,56.91
2018-05-29T16:56:13.357Z,57.28
2018-05-29T16:58:46.264Z,58.65
2018-05-29T17:01:18.198Z,57.96
2018-05-29T17:03:49.686Z,57.20
2018-05-29T17:06:21.136Z,58.67
2018-05-29T17:08:52.662Z,60.33
2018-05-29T17:11:24.009Z,59.49
2018-05-29T17:13:57.033Z,59.51
2018-05-29T17:16:29.944Z,63.31
2018-05-29T17:19:04.479Z,65.91
2018-05-29T17:21:38.734Z,68.54
2018-05-29T17:24:11.527Z,68.96
2018-05-29T17:26:43.131Z,68.98
2018-05-29T17:29:15.218Z,70.21
2018-05-29T17:31:49.572Z,73.21
2018-05-29T17:34:20.943Z,71.92
2018-05-29T17:36:52.424Z,70.04
2018-05-29T17:39:24.083Z,70.31
2018-05-29T17:41:55.536Z,70.18
2018-05-29T17:44:27.974Z,69.70
2018-05-29T17:46:59.592Z,69.31
2018-05-29T17:49:32.606Z,70.17
2018-05-29T17:52:04.775Z,69.98
2018-05-29T17:54:37.683Z,75.13
2018-05-29T17:57:10.248Z,73.86
2018-05-29T17:59:42.266Z,75.58
2018-05-29T18:02:16.942Z,77.09
2018-05-29T18:04:51.505Z,77.80
2018-05-29T18:07:26.132Z,78.99
2018-05-29T18:10:00.720Z,78.61
2018-05-29T18:12:32.102Z,79.08
2018-05-29T18:15:04.461Z,79.06
2018-05-29T18:17:37.398Z,79.07
2018-05-29T18:20:10.353Z,78.56
2018-05-29T18:22:42.870Z,78.40
2018-05-29T18:25:17.375Z,77.93
2018-05-29T18:27:50.284Z,76.74
2018-05-29T18:30:24.117Z,77.54
2018-05-29T18:32:57.352Z,77.69
2018-05-29T18:35:31.818Z,78.28
2018-05-29T18:38:06.557Z,80.38
2018-05-29T18:40:36.649Z,79.11
2018-05-29T18:43:08.106Z,80.37
2018-05-29T18:45:42.508Z,80.30
2018-05-29T18:48:12.548Z,80.23
2018-05-29T18:50:45.613Z,80.58
2018-05-29T18:53:15.953Z,81.32
2018-05-29T18:55:47.535Z,82.08
2018-05-29T18:58:19.019Z,83.30
2018-05-29T19:00:53.733Z,82.75
2018-05-29T19:03:26.650Z,82.54
2018-05-29T19:05:58.458Z,83.47
2018-05-29T19:08:29.411Z,82.54
2018-05-29T19:11:00.316Z,82.52
2018-05-29T19:13:33.318Z,82.37
2018-05-29T19:16:06.491Z,81.72
2018-05-29T19:18:40.632Z,82.12
2018-05-29T19:21:12.114Z,82.30
2018-05-29T19:23:46.462Z,82.56
2018-05-29T19:26:17.228Z,82.34
2018-05-29T19:28:49.928Z,83.44
2018-05-29T19:31:24.514Z,82.81
2018-05-29T19:33:56.004Z,81.37
2018-05-29T19:36:30.906Z,82.19
2018-05-29T19:39:03.915Z,82.16
2018-05-29T19:41:35.586Z,81.19
2018-05-29T19:44:10.263Z,81.86
2018-05-29T19:46:43.518Z,81.54
2018-05-29T19:49:15.095Z,82.06
2018-05-29T19:51:48.120Z,80.29
2018-05-29T19:54:21.086Z,81.32
2018-05-29T19:56:53.941Z,81.39
2018-05-29T19:59:26.418Z,81.76
2018-05-29T20:01:59.334Z,81.49
2018-05-29T20:04:29.317Z,81.96
2018-05-29T20:07:00.806Z,81.75
2018-05-29T20:09:33.036Z,82.20
2018-05-29T20:12:05.169Z,81.03
2018-05-29T20:14:38.353Z,81.52
2018-05-29T20:17:11.532Z,80.14
2018-05-29T20:19:41.742Z,80.21
2018-05-29T20:22:15.532Z,80.65
2018-05-29T20:24:48.452Z,81.21
2018-05-29T20:27:20.113Z,82.66
2018-05-29T20:29:54.488Z,83.44
2018-05-29T20:32:28.298Z,82.44
2018-05-29T20:35:01.648Z,83.18
2018-05-29T20:37:35.882Z,83.06
2018-05-29T20:40:09.009Z,83.08
2018-05-29T20:42:40.374Z,83.30
2018-05-29T20:45:13.206Z,83.36
2018-05-29T20:47:43.900Z,83.45
2018-05-29T20:50:18.197Z,83.70
2018-05-29T20:52:49.816Z,83.50
2018-05-29T20:55:19.727Z,83.86
2018-05-29T20:57:51.177Z,84.55
2018-05-29T21:00:24.205Z,84.22
2018-05-29T21:02:57.487Z,83.59
2018-05-29T21:05:30.386Z,82.89
2018-05-29T21:08:03.710Z,82.41
2018-05-29T21:10:36.935Z,82.76
2018-05-29T21:13:09.792Z,82.88
2018-05-29T21:15:43.143Z,83.08
2018-05-29T21:18:16.387Z,83.42
2018-05-29T21:20:48.824Z,83.28
2018-05-29T21:23:21.251Z,83.73
2018-05-29T21:25:54.219Z,84.04
2018-05-29T21:28:27.398Z,84.03
2018-05-29T21:31:00.001Z,83.76
2018-05-29T21:33:34.366Z,83.83
2018-05-29T21:36:05.845Z,82.30
2018-05-29T21:38:38.975Z,82.69
2018-05-29T21:41:11.985Z,82.70
2018-05-29T21:43:44.915Z,82.59
2018-05-29T21:46:16.417Z,82.88
2018-05-29T21:48:50.963Z,83.55
2018-05-29T21:51:23.927Z,81.94
2018-05-29T21:53:58.687Z,81.74
2018-05-29T21:56:32.031Z,83.56
2018-05-29T21:59:05.002Z,84.06
2018-05-29T22:01:37.980Z,84.27
2018-05-29T22:04:11.065Z,84.36
2018-05-29T22:06:42.385Z,84.63
2018-05-29T22:09:12.709Z,84.60
2018-05-29T22:11:45.996Z,84.76
2018-05-29T22:14:18.956Z,84.41
2018-05-29T22:16:52.277Z,84.20
2018-05-29T22:19:25.269Z,84.00
2018-05-29T22:21:59.863Z,84.11
2018-05-29T22:24:32.703Z,84.20
2018-05-29T22:27:04.383Z,83.56
2018-05-29T22:29:39.267Z,83.12
2018-05-29T22:32:10.712Z,83.24
2018-05-29T22:34:43.557Z,83.48
2018-05-29T22:37:16.735Z,83.45
2018-05-29T22:39:48.316Z,83.23
2018-05-29T22:42:22.813Z,83.15
2018-05-29T22:44:55.265Z,83.02
2018-05-29T22:47:26.881Z,82.92
2018-05-29T22:49:59.785Z,82.86
2018-05-29T22:52:34.294Z,82.97
2018-05-29T22:55:06.342Z,83.06
2018-05-29T22:57:39.442Z,82.37
2018-05-29T23:00:12.458Z,81.95
2018-05-29T23:02:45.775Z,81.14
2018-05-29T23:05:18.944Z,81.76
2018-05-29T23:07:52.095Z,82.34
2018-05-29T23:10:26.874Z,82.15
2018-05-29T23:12:59.876Z,82.61
2018-05-29T23:15:33.195Z,82.63
2018-05-29T23:18:06.171Z,82.30
2018-05-29T23:20:39.104Z,82.26
2018-05-29T23:23:13.802Z,82.12
2018-05-29T23:25:46.732Z,82.55
2018-05-29T23:28:19.757Z,82.43
2018-05-29T23:30:53.008Z,82.99
2018-05-29T23:33:26.019Z,82.55
2018-05-29T23:35:55.953Z,82.90
2018-05-29T23:38:29.471Z,82.88
2018-05-29T23:41:01.097Z,83.54
2018-05-29T23:43:34.147Z,84.02
2018-05-29T23:46:07.054Z,84.09
2018-05-29T23:48:41.740Z,83.79
2018-05-29T23:51:11.639Z,83.24
2018-05-29T23:53:46.520Z,83.21
2018-05-29T23:56:18.637Z,82.86
2018-05-29T23:58:53.383Z,83.07
